sensor_id;sensor_type;location;lat;lon;timestamp;pressure;altitude;pressure_sealevel;temperature;humidity
81230;BME280;70701;44.452;18.652;2023-08-08T00:01:15;99317.91;;;16.02;78.54
81230;BME280;70701;44.452;18.652;2023-08-08T00:03:41;99310.56;;;15.96;78.18
81230;BME280;70701;44.452;18.652;2023-08-08T00:06:06;99314.31;;;15.83;78.71
81230;BME280;70701;44.452;18.652;2023-08-08T00:08:32;99317.34;;;15.58;79.78
81230;BME280;70701;44.452;18.652;2023-08-08T00:10:58;99327.00;;;15.47;79.75
81230;BME280;70701;44.452;18.652;2023-08-08T00:13:23;99315.88;;;15.34;80.18
81230;BME280;70701;44.452;18.652;2023-08-08T00:15:49;99322.16;;;15.48;79.93
81230;BME280;70701;44.452;18.652;2023-08-08T00:18:14;99319.44;;;15.35;78.98
81230;BME280;70701;44.452;18.652;2023-08-08T00:20:40;99314.00;;;15.41;78.97
81230;BME280;70701;44.452;18.652;2023-08-08T00:23:06;99311.81;;;15.26;78.57
81230;BME280;70701;44.452;18.652;2023-08-08T00:25:31;99321.50;;;15.03;79.31
81230;BME280;70701;44.452;18.652;2023-08-08T00:27:57;99325.34;;;14.65;80.76
81230;BME280;70701;44.452;18.652;2023-08-08T00:30:23;99321.75;;;14.87;81.20
81230;BME280;70701;44.452;18.652;2023-08-08T00:32:48;99325.88;;;15.04;80.25
81230;BME280;70701;44.452;18.652;2023-08-08T00:35:14;99320.44;;;14.78;81.19
81230;BME280;70701;44.452;18.652;2023-08-08T00:37:39;99319.41;;;15.16;80.71
81230;BME280;70701;44.452;18.652;2023-08-08T00:40:05;99324.56;;;15.27;80.15
81230;BME280;70701;44.452;18.652;2023-08-08T00:42:31;99305.25;;;15.29;79.14
81230;BME280;70701;44.452;18.652;2023-08-08T00:44:57;99320.47;;;15.60;78.13
81230;BME280;70701;44.452;18.652;2023-08-08T00:47:27;99322.47;;;15.50;78.00
81230;BME280;70701;44.452;18.652;2023-08-08T00:49:54;99325.44;;;15.55;77.21
81230;BME280;70701;44.452;18.652;2023-08-08T00:52:20;99330.56;;;15.48;77.58
81230;BME280;70701;44.452;18.652;2023-08-08T00:54:46;99321.53;;;15.53;76.96
81230;BME280;70701;44.452;18.652;2023-08-08T00:57:12;99328.59;;;15.67;77.12
81230;BME280;70701;44.452;18.652;2023-08-08T00:59:38;99320.53;;;15.78;76.64
81230;BME280;70701;44.452;18.652;2023-08-08T01:02:03;99319.16;;;15.92;76.66
81230;BME280;70701;44.452;18.652;2023-08-08T01:04:29;99328.34;;;15.92;76.69
81230;BME280;70701;44.452;18.652;2023-08-08T01:07:01;99332.88;;;15.81;76.92
81230;BME280;70701;44.452;18.652;2023-08-08T01:09:47;99326.16;;;15.97;76.43
81230;BME280;70701;44.452;18.652;2023-08-08T01:12:14;99322.88;;;15.89;76.24
81230;BME280;70701;44.452;18.652;2023-08-08T01:14:42;99326.72;;;15.64;77.90
81230;BME280;70701;44.452;18.652;2023-08-08T01:17:08;99334.31;;;15.54;78.38
81230;BME280;70701;44.452;18.652;2023-08-08T01:19:36;99318.72;;;15.44;78.35
81230;BME280;70701;44.452;18.652;2023-08-08T01:22:05;99331.78;;;15.38;79.09
81230;BME280;70701;44.452;18.652;2023-08-08T01:24:33;99350.28;;;15.16;80.32
81230;BME280;70701;44.452;18.652;2023-08-08T01:27:03;99334.78;;;15.43;78.82
81230;BME280;70701;44.452;18.652;2023-08-08T01:29:30;99336.47;;;15.41;79.27
81230;BME280;70701;44.452;18.652;2023-08-08T01:31:56;99334.56;;;15.28;79.22
81230;BME280;70701;44.452;18.652;2023-08-08T01:34:22;99339.13;;;15.04;80.33
81230;BME280;70701;44.452;18.652;2023-08-08T01:37:19;99335.72;;;15.09;80.83
81230;BME280;70701;44.452;18.652;2023-08-08T01:39:46;99332.59;;;15.07;80.85
81230;BME280;70701;44.452;18.652;2023-08-08T01:42:13;99320.13;;;15.08;80.40
81230;BME280;70701;44.452;18.652;2023-08-08T01:44:41;99333.03;;;15.05;80.96
81230;BME280;70701;44.452;18.652;2023-08-08T01:47:08;99332.91;;;15.09;80.50
81230;BME280;70701;44.452;18.652;2023-08-08T01:49:34;99336.19;;;15.07;80.66
81230;BME280;70701;44.452;18.652;2023-08-08T01:52:00;99285.19;;;14.68;81.22
81230;BME280;70701;44.452;18.652;2023-08-08T01:54:25;99312.31;;;14.71;81.58
81230;BME280;70701;44.452;18.652;2023-08-08T01:56:51;99311.69;;;14.54;82.04
81230;BME280;70701;44.452;18.652;2023-08-08T01:59:17;99326.66;;;14.73;82.02
81230;BME280;70701;44.452;18.652;2023-08-08T02:01:42;99317.09;;;14.93;80.64
81230;BME280;70701;44.452;18.652;2023-08-08T02:04:08;99322.91;;;14.99;80.54
81230;BME280;70701;44.452;18.652;2023-08-08T02:06:33;99320.13;;;14.76;81.34
81230;BME280;70701;44.452;18.652;2023-08-08T02:08:59;99315.06;;;14.62;82.03
81230;BME280;70701;44.452;18.652;2023-08-08T02:11:25;99312.34;;;14.81;81.53
81230;BME280;70701;44.452;18.652;2023-08-08T02:13:51;99287.81;;;14.41;83.03
81230;BME280;70701;44.452;18.652;2023-08-08T02:16:16;99319.75;;;14.65;82.31
81230;BME280;70701;44.452;18.652;2023-08-08T02:18:42;99310.69;;;14.83;80.69
81230;BME280;70701;44.452;18.652;2023-08-08T02:21:08;99324.44;;;14.90;80.79
81230;BME280;70701;44.452;18.652;2023-08-08T02:23:34;99329.59;;;14.70;81.14
81230;BME280;70701;44.452;18.652;2023-08-08T02:26:00;99323.44;;;14.84;81.01
81230;BME280;70701;44.452;18.652;2023-08-08T02:28:25;99330.25;;;14.74;80.59
81230;BME280;70701;44.452;18.652;2023-08-08T02:30:52;99330.97;;;14.65;81.62
81230;BME280;70701;44.452;18.652;2023-08-08T02:33:18;99329.78;;;14.53;81.53
81230;BME280;70701;44.452;18.652;2023-08-08T02:35:44;99319.28;;;14.45;81.36
81230;BME280;70701;44.452;18.652;2023-08-08T02:38:10;99329.22;;;14.58;81.56
81230;BME280;70701;44.452;18.652;2023-08-08T02:40:38;99328.88;;;14.56;80.85
81230;BME280;70701;44.452;18.652;2023-08-08T02:43:04;99319.59;;;14.47;80.38
81230;BME280;70701;44.452;18.652;2023-08-08T02:45:30;99335.56;;;14.37;80.73
81230;BME280;70701;44.452;18.652;2023-08-08T02:47:55;99320.09;;;14.10;81.49
81230;BME280;70701;44.452;18.652;2023-08-08T02:50:21;99339.97;;;14.03;82.12
81230;BME280;70701;44.452;18.652;2023-08-08T02:52:47;99316.44;;;14.00;81.79
81230;BME280;70701;44.452;18.652;2023-08-08T02:55:12;99333.81;;;13.95;82.07
81230;BME280;70701;44.452;18.652;2023-08-08T02:57:40;99339.41;;;13.95;81.41
81230;BME280;70701;44.452;18.652;2023-08-08T03:00:06;99354.78;;;13.91;82.10
81230;BME280;70701;44.452;18.652;2023-08-08T03:02:38;99356.59;;;13.72;83.16
81230;BME280;70701;44.452;18.652;2023-08-08T03:05:04;99357.66;;;13.52;84.16
81230;BME280;70701;44.452;18.652;2023-08-08T03:07:29;99339.94;;;13.04;85.26
81230;BME280;70701;44.452;18.652;2023-08-08T03:09:55;99360.31;;;13.05;86.46
81230;BME280;70701;44.452;18.652;2023-08-08T03:12:21;99359.22;;;13.40;86.28
81230;BME280;70701;44.452;18.652;2023-08-08T03:14:50;99373.31;;;13.50;85.07
81230;BME280;70701;44.452;18.652;2023-08-08T03:17:15;99364.13;;;13.49;86.39
81230;BME280;70701;44.452;18.652;2023-08-08T03:19:41;99380.22;;;13.96;83.94
81230;BME280;70701;44.452;18.652;2023-08-08T03:22:07;99392.59;;;14.08;84.25
81230;BME280;70701;44.452;18.652;2023-08-08T03:24:36;99385.22;;;14.02;83.93
81230;BME280;70701;44.452;18.652;2023-08-08T03:27:02;99379.81;;;14.07;84.50
81230;BME280;70701;44.452;18.652;2023-08-08T03:29:27;99386.59;;;14.32;83.94
81230;BME280;70701;44.452;18.652;2023-08-08T03:31:55;99393.72;;;14.46;82.99
81230;BME280;70701;44.452;18.652;2023-08-08T03:34:21;99387.38;;;14.54;82.78
81230;BME280;70701;44.452;18.652;2023-08-08T03:36:46;99388.88;;;14.59;82.65
81230;BME280;70701;44.452;18.652;2023-08-08T03:39:12;99385.88;;;14.41;83.15
81230;BME280;70701;44.452;18.652;2023-08-08T03:41:38;99349.97;;;13.91;84.04
81230;BME280;70701;44.452;18.652;2023-08-08T03:44:04;99381.56;;;13.79;85.22
81230;BME280;70701;44.452;18.652;2023-08-08T03:46:30;99390.19;;;13.72;86.05
81230;BME280;70701;44.452;18.652;2023-08-08T03:48:56;99382.16;;;13.48;86.68
81230;BME280;70701;44.452;18.652;2023-08-08T03:51:21;99386.38;;;13.14;87.46
81230;BME280;70701;44.452;18.652;2023-08-08T03:53:48;99378.41;;;13.00;87.45
81230;BME280;70701;44.452;18.652;2023-08-08T03:56:13;99363.72;;;12.41;88.92
81230;BME280;70701;44.452;18.652;2023-08-08T03:58:39;99375.47;;;12.91;88.07
81230;BME280;70701;44.452;18.652;2023-08-08T04:01:05;99365.66;;;13.25;87.98
81230;BME280;70701;44.452;18.652;2023-08-08T04:03:31;99368.00;;;13.77;85.21
81230;BME280;70701;44.452;18.652;2023-08-08T04:05:56;99377.31;;;14.22;83.29
81230;BME280;70701;44.452;18.652;2023-08-08T04:08:22;99381.19;;;14.37;82.16
81230;BME280;70701;44.452;18.652;2023-08-08T04:10:47;99385.72;;;13.74;84.96
81230;BME280;70701;44.452;18.652;2023-08-08T04:13:13;99397.91;;;13.93;83.50
81230;BME280;70701;44.452;18.652;2023-08-08T04:15:39;99404.59;;;14.09;83.49
81230;BME280;70701;44.452;18.652;2023-08-08T04:18:05;99397.06;;;14.06;82.94
81230;BME280;70701;44.452;18.652;2023-08-08T04:20:34;99398.88;;;14.12;82.55
81230;BME280;70701;44.452;18.652;2023-08-08T04:23:00;99406.81;;;14.14;82.70
81230;BME280;70701;44.452;18.652;2023-08-08T04:25:26;99411.72;;;14.23;82.53
81230;BME280;70701;44.452;18.652;2023-08-08T04:27:52;99402.34;;;14.04;82.77
81230;BME280;70701;44.452;18.652;2023-08-08T04:30:17;99406.41;;;14.03;83.40
81230;BME280;70701;44.452;18.652;2023-08-08T04:32:43;99414.56;;;14.10;83.09
81230;BME280;70701;44.452;18.652;2023-08-08T04:35:09;99419.78;;;14.20;82.90
81230;BME280;70701;44.452;18.652;2023-08-08T04:37:34;99413.06;;;14.31;83.00
81230;BME280;70701;44.452;18.652;2023-08-08T04:40:00;99401.00;;;14.43;81.77
81230;BME280;70701;44.452;18.652;2023-08-08T04:42:25;99414.47;;;14.13;82.88
81230;BME280;70701;44.452;18.652;2023-08-08T04:44:51;99431.63;;;14.03;83.35
81230;BME280;70701;44.452;18.652;2023-08-08T04:47:16;99421.59;;;14.14;83.26
81230;BME280;70701;44.452;18.652;2023-08-08T04:49:42;99430.25;;;14.07;83.46
81230;BME280;70701;44.452;18.652;2023-08-08T04:52:07;99433.88;;;13.95;83.42
81230;BME280;70701;44.452;18.652;2023-08-08T04:54:33;99436.88;;;14.13;83.64
81230;BME280;70701;44.452;18.652;2023-08-08T04:56:58;99455.53;;;14.29;82.41
81230;BME280;70701;44.452;18.652;2023-08-08T04:59:24;99451.09;;;14.54;81.85
81230;BME280;70701;44.452;18.652;2023-08-08T05:01:50;99454.19;;;14.69;81.45
81230;BME280;70701;44.452;18.652;2023-08-08T05:04:16;99447.06;;;14.55;81.05
81230;BME280;70701;44.452;18.652;2023-08-08T05:06:42;99458.84;;;14.50;82.33
81230;BME280;70701;44.452;18.652;2023-08-08T05:09:07;99474.03;;;14.74;80.87
81230;BME280;70701;44.452;18.652;2023-08-08T05:11:35;99474.34;;;14.42;81.69
81230;BME280;70701;44.452;18.652;2023-08-08T05:14:01;99475.97;;;14.52;82.45
81230;BME280;70701;44.452;18.652;2023-08-08T05:16:26;99476.31;;;14.67;81.30
81230;BME280;70701;44.452;18.652;2023-08-08T05:18:52;99481.34;;;14.94;79.95
81230;BME280;70701;44.452;18.652;2023-08-08T05:21:19;99473.41;;;14.92;79.22
81230;BME280;70701;44.452;18.652;2023-08-08T05:23:45;99485.63;;;14.64;81.41
81230;BME280;70701;44.452;18.652;2023-08-08T05:26:10;99465.22;;;14.50;81.09
81230;BME280;70701;44.452;18.652;2023-08-08T05:28:36;99485.72;;;14.95;79.72
81230;BME280;70701;44.452;18.652;2023-08-08T05:31:02;99471.91;;;14.66;78.45
81230;BME280;70701;44.452;18.652;2023-08-08T05:33:27;99490.22;;;13.97;82.09
81230;BME280;70701;44.452;18.652;2023-08-08T05:35:53;99481.06;;;14.44;81.41
81230;BME280;70701;44.452;18.652;2023-08-08T05:38:18;99485.19;;;14.87;79.47
81230;BME280;70701;44.452;18.652;2023-08-08T05:40:44;99478.88;;;14.96;79.65
81230;BME280;70701;44.452;18.652;2023-08-08T05:43:10;99484.81;;;14.98;78.67
81230;BME280;70701;44.452;18.652;2023-08-08T05:45:35;99504.25;;;14.92;78.96
81230;BME280;70701;44.452;18.652;2023-08-08T05:48:01;99502.63;;;15.04;78.90
81230;BME280;70701;44.452;18.652;2023-08-08T05:50:27;99507.72;;;15.19;78.42
81230;BME280;70701;44.452;18.652;2023-08-08T05:52:53;99511.19;;;15.23;77.67
81230;BME280;70701;44.452;18.652;2023-08-08T05:55:19;99504.06;;;15.09;78.25
81230;BME280;70701;44.452;18.652;2023-08-08T05:57:44;99495.44;;;15.03;76.72
81230;BME280;70701;44.452;18.652;2023-08-08T06:00:10;99511.88;;;15.14;77.10
81230;BME280;70701;44.452;18.652;2023-08-08T06:02:39;99521.63;;;15.00;78.08
81230;BME280;70701;44.452;18.652;2023-08-08T06:05:05;99514.38;;;15.34;76.70
81230;BME280;70701;44.452;18.652;2023-08-08T06:07:31;99509.91;;;15.46;76.08
81230;BME280;70701;44.452;18.652;2023-08-08T06:09:56;99502.38;;;15.65;74.74
81230;BME280;70701;44.452;18.652;2023-08-08T06:12:22;99493.47;;;15.88;74.45
81230;BME280;70701;44.452;18.652;2023-08-08T06:14:47;99494.31;;;16.07;73.89
81230;BME280;70701;44.452;18.652;2023-08-08T06:17:13;99500.91;;;16.23;73.39
81230;BME280;70701;44.452;18.652;2023-08-08T06:19:40;99498.66;;;15.99;73.64
81230;BME280;70701;44.452;18.652;2023-08-08T06:22:05;99506.44;;;15.95;74.04
81230;BME280;70701;44.452;18.652;2023-08-08T06:24:31;99501.25;;;15.84;74.41
81230;BME280;70701;44.452;18.652;2023-08-08T06:26:57;99498.72;;;16.27;73.32
81230;BME280;70701;44.452;18.652;2023-08-08T06:29:22;99504.81;;;16.25;73.28
81230;BME280;70701;44.452;18.652;2023-08-08T06:31:48;99501.31;;;16.03;73.82
81230;BME280;70701;44.452;18.652;2023-08-08T06:34:13;99512.09;;;16.04;74.40
81230;BME280;70701;44.452;18.652;2023-08-08T06:36:40;99509.00;;;16.11;74.77
81230;BME280;70701;44.452;18.652;2023-08-08T06:39:07;99510.03;;;16.45;73.42
81230;BME280;70701;44.452;18.652;2023-08-08T06:41:33;99496.56;;;16.31;74.38
81230;BME280;70701;44.452;18.652;2023-08-08T06:43:58;99511.75;;;16.43;74.13
81230;BME280;70701;44.452;18.652;2023-08-08T06:46:24;99511.13;;;16.48;73.94
81230;BME280;70701;44.452;18.652;2023-08-08T06:48:50;99515.81;;;16.60;73.27
81230;BME280;70701;44.452;18.652;2023-08-08T06:51:18;99522.03;;;16.46;74.00
81230;BME280;70701;44.452;18.652;2023-08-08T06:53:44;99525.03;;;16.51;73.99
81230;BME280;70701;44.452;18.652;2023-08-08T06:56:09;99530.38;;;16.68;73.87
81230;BME280;70701;44.452;18.652;2023-08-08T06:58:35;99529.41;;;16.52;74.52
81230;BME280;70701;44.452;18.652;2023-08-08T07:01:01;99524.22;;;16.42;74.17
81230;BME280;70701;44.452;18.652;2023-08-08T07:03:26;99530.97;;;16.63;74.44
81230;BME280;70701;44.452;18.652;2023-08-08T07:05:52;99516.03;;;17.03;72.45
81230;BME280;70701;44.452;18.652;2023-08-08T07:08:19;99520.41;;;17.04;73.19
81230;BME280;70701;44.452;18.652;2023-08-08T07:10:44;99510.56;;;17.27;72.40
81230;BME280;70701;44.452;18.652;2023-08-08T07:13:10;99509.13;;;17.41;71.62
81230;BME280;70701;44.452;18.652;2023-08-08T07:15:35;99518.50;;;17.38;71.86
81230;BME280;70701;44.452;18.652;2023-08-08T07:18:02;99518.78;;;17.49;71.47
81230;BME280;70701;44.452;18.652;2023-08-08T07:20:28;99515.63;;;17.65;70.76
81230;BME280;70701;44.452;18.652;2023-08-08T07:22:54;99512.78;;;17.75;70.71
81230;BME280;70701;44.452;18.652;2023-08-08T07:25:20;99511.66;;;17.91;69.77
81230;BME280;70701;44.452;18.652;2023-08-08T07:27:45;99517.31;;;17.81;70.14
81230;BME280;70701;44.452;18.652;2023-08-08T07:30:11;99515.09;;;17.95;69.90
81230;BME280;70701;44.452;18.652;2023-08-08T07:32:37;99513.47;;;18.03;69.16
81230;BME280;70701;44.452;18.652;2023-08-08T07:35:03;99515.28;;;17.73;70.45
81230;BME280;70701;44.452;18.652;2023-08-08T07:37:31;99509.16;;;17.93;69.60
81230;BME280;70701;44.452;18.652;2023-08-08T07:39:58;99510.97;;;18.05;69.09
81230;BME280;70701;44.452;18.652;2023-08-08T07:42:23;99514.13;;;18.31;68.72
81230;BME280;70701;44.452;18.652;2023-08-08T07:44:49;99505.97;;;18.00;69.98
81230;BME280;70701;44.452;18.652;2023-08-08T07:47:14;99498.59;;;18.02;69.44
81230;BME280;70701;44.452;18.652;2023-08-08T07:49:40;99504.75;;;17.92;69.51
81230;BME280;70701;44.452;18.652;2023-08-08T07:52:06;99504.41;;;17.99;69.69
81230;BME280;70701;44.452;18.652;2023-08-08T07:54:34;99494.78;;;18.15;69.82
81230;BME280;70701;44.452;18.652;2023-08-08T07:57:00;99462.16;;;18.47;67.71
81230;BME280;70701;44.452;18.652;2023-08-08T07:59:25;99492.50;;;18.52;67.37
81230;BME280;70701;44.452;18.652;2023-08-08T08:01:52;99491.91;;;18.96;65.80
81230;BME280;70701;44.452;18.652;2023-08-08T08:04:17;99497.91;;;18.89;66.40
81230;BME280;70701;44.452;18.652;2023-08-08T08:06:43;99482.00;;;19.16;64.70
81230;BME280;70701;44.452;18.652;2023-08-08T08:09:08;99466.72;;;19.22;64.48
81230;BME280;70701;44.452;18.652;2023-08-08T08:11:34;99470.13;;;19.27;63.45
81230;BME280;70701;44.452;18.652;2023-08-08T08:14:00;99464.47;;;19.56;61.53
81230;BME280;70701;44.452;18.652;2023-08-08T08:16:25;99457.16;;;19.35;60.51
81230;BME280;70701;44.452;18.652;2023-08-08T08:18:51;99454.44;;;19.55;59.42
81230;BME280;70701;44.452;18.652;2023-08-08T08:21:17;99460.34;;;19.87;58.07
81230;BME280;70701;44.452;18.652;2023-08-08T08:23:43;99447.22;;;19.84;57.21
81230;BME280;70701;44.452;18.652;2023-08-08T08:26:09;99441.84;;;19.86;56.36
81230;BME280;70701;44.452;18.652;2023-08-08T08:28:35;99455.31;;;20.12;56.24
81230;BME280;70701;44.452;18.652;2023-08-08T08:31:07;99459.56;;;20.22;55.92
81230;BME280;70701;44.452;18.652;2023-08-08T08:33:33;99458.75;;;20.36;54.67
81230;BME280;70701;44.452;18.652;2023-08-08T08:36:00;99454.38;;;20.00;55.52
81230;BME280;70701;44.452;18.652;2023-08-08T08:38:25;99456.88;;;20.13;52.02
81230;BME280;70701;44.452;18.652;2023-08-08T08:40:53;99419.16;;;19.80;52.37
81230;BME280;70701;44.452;18.652;2023-08-08T08:43:19;99460.31;;;20.02;52.80
81230;BME280;70701;44.452;18.652;2023-08-08T08:45:52;99452.34;;;20.21;52.11
81230;BME280;70701;44.452;18.652;2023-08-08T08:48:19;99456.81;;;20.28;48.60
81230;BME280;70701;44.452;18.652;2023-08-08T08:50:48;99461.13;;;20.23;47.65
81230;BME280;70701;44.452;18.652;2023-08-08T08:53:14;99458.72;;;20.16;45.80
81230;BME280;70701;44.452;18.652;2023-08-08T08:55:42;99450.88;;;20.26;46.92
81230;BME280;70701;44.452;18.652;2023-08-08T08:58:09;99441.69;;;20.31;46.40
81230;BME280;70701;44.452;18.652;2023-08-08T09:00:35;99452.06;;;20.19;45.00
81230;BME280;70701;44.452;18.652;2023-08-08T09:03:01;99464.53;;;20.27;43.90
81230;BME280;70701;44.452;18.652;2023-08-08T09:05:27;99453.44;;;20.44;44.56
81230;BME280;70701;44.452;18.652;2023-08-08T09:07:53;99458.06;;;20.62;43.61
81230;BME280;70701;44.452;18.652;2023-08-08T09:10:19;99449.13;;;20.69;44.56
81230;BME280;70701;44.452;18.652;2023-08-08T09:12:45;99451.03;;;20.57;44.36
81230;BME280;70701;44.452;18.652;2023-08-08T09:15:12;99450.69;;;20.29;45.16
81230;BME280;70701;44.452;18.652;2023-08-08T09:17:42;99447.31;;;19.60;46.52
81230;BME280;70701;44.452;18.652;2023-08-08T09:20:09;99455.22;;;20.06;46.57
81230;BME280;70701;44.452;18.652;2023-08-08T09:22:37;99440.78;;;20.39;47.35
81230;BME280;70701;44.452;18.652;2023-08-08T09:25:04;99441.06;;;20.62;46.70
81230;BME280;70701;44.452;18.652;2023-08-08T09:27:30;99442.63;;;20.84;46.44
81230;BME280;70701;44.452;18.652;2023-08-08T09:29:56;99449.59;;;20.88;46.19
81230;BME280;70701;44.452;18.652;2023-08-08T09:32:21;99450.31;;;20.83;46.38
81230;BME280;70701;44.452;18.652;2023-08-08T09:34:47;99444.03;;;20.73;46.72
81230;BME280;70701;44.452;18.652;2023-08-08T09:37:13;99442.09;;;20.85;46.30
81230;BME280;70701;44.452;18.652;2023-08-08T09:39:40;99444.44;;;21.13;46.65
81230;BME280;70701;44.452;18.652;2023-08-08T09:42:07;99447.34;;;21.19;46.96
81230;BME280;70701;44.452;18.652;2023-08-08T09:44:33;99442.03;;;21.32;45.78
81230;BME280;70701;44.452;18.652;2023-08-08T09:47:01;99445.06;;;21.49;45.56
81230;BME280;70701;44.452;18.652;2023-08-08T09:49:26;99441.69;;;21.82;45.08
81230;BME280;70701;44.452;18.652;2023-08-08T09:51:53;99446.44;;;21.97;45.25
81230;BME280;70701;44.452;18.652;2023-08-08T09:54:20;99449.03;;;21.63;44.11
81230;BME280;70701;44.452;18.652;2023-08-08T09:56:48;99453.22;;;21.73;44.79
81230;BME280;70701;44.452;18.652;2023-08-08T09:59:16;99444.78;;;22.22;44.60
81230;BME280;70701;44.452;18.652;2023-08-08T10:01:44;99447.47;;;22.37;42.61
81230;BME280;70701;44.452;18.652;2023-08-08T10:04:12;99443.16;;;22.52;43.65
81230;BME280;70701;44.452;18.652;2023-08-08T10:06:37;99438.03;;;22.62;43.22
81230;BME280;70701;44.452;18.652;2023-08-08T10:09:03;99444.16;;;22.44;44.34
81230;BME280;70701;44.452;18.652;2023-08-08T10:11:30;99438.84;;;22.20;45.77
81230;BME280;70701;44.452;18.652;2023-08-08T10:13:57;99439.63;;;21.83;46.74
81230;BME280;70701;44.452;18.652;2023-08-08T10:16:23;99441.22;;;21.52;46.94
81230;BME280;70701;44.452;18.652;2023-08-08T10:18:59;99448.28;;;21.36;47.01
81230;BME280;70701;44.452;18.652;2023-08-08T10:21:25;99429.84;;;21.20;47.45
81230;BME280;70701;44.452;18.652;2023-08-08T10:24:04;99437.28;;;21.44;48.01
81230;BME280;70701;44.452;18.652;2023-08-08T10:26:30;99435.25;;;21.82;46.51
81230;BME280;70701;44.452;18.652;2023-08-08T10:28:57;99431.34;;;22.22;44.38
81230;BME280;70701;44.452;18.652;2023-08-08T10:31:23;99421.63;;;21.86;45.46
81230;BME280;70701;44.452;18.652;2023-08-08T10:33:49;99428.97;;;21.66;46.63
81230;BME280;70701;44.452;18.652;2023-08-08T10:36:15;99421.75;;;22.08;44.78
81230;BME280;70701;44.452;18.652;2023-08-08T10:38:47;99424.59;;;22.08;44.03
81230;BME280;70701;44.452;18.652;2023-08-08T10:41:15;99428.94;;;21.61;45.67
81230;BME280;70701;44.452;18.652;2023-08-08T10:43:50;99425.13;;;21.11;46.06
81230;BME280;70701;44.452;18.652;2023-08-08T10:46:29;99423.66;;;20.69;46.12
81230;BME280;70701;44.452;18.652;2023-08-08T10:49:00;99425.28;;;20.55;47.50
81230;BME280;70701;44.452;18.652;2023-08-08T10:51:36;99426.47;;;20.49;47.31
81230;BME280;70701;44.452;18.652;2023-08-08T10:54:06;99429.75;;;20.62;48.21
81230;BME280;70701;44.452;18.652;2023-08-08T10:56:34;99427.03;;;20.53;49.35
81230;BME280;70701;44.452;18.652;2023-08-08T10:58:59;99425.56;;;20.57;49.69
81230;BME280;70701;44.452;18.652;2023-08-08T11:01:25;99415.44;;;20.51;48.20
81230;BME280;70701;44.452;18.652;2023-08-08T11:03:51;99419.00;;;20.66;48.68
81230;BME280;70701;44.452;18.652;2023-08-08T11:06:17;99416.00;;;20.75;47.70
81230;BME280;70701;44.452;18.652;2023-08-08T11:08:44;99414.25;;;21.04;46.03
81230;BME280;70701;44.452;18.652;2023-08-08T11:11:09;99414.78;;;21.66;44.86
81230;BME280;70701;44.452;18.652;2023-08-08T11:13:35;99407.56;;;22.08;43.74
81230;BME280;70701;44.452;18.652;2023-08-08T11:16:01;99405.13;;;21.90;44.97
81230;BME280;70701;44.452;18.652;2023-08-08T11:18:29;99407.56;;;22.08;44.73
81230;BME280;70701;44.452;18.652;2023-08-08T11:20:55;99409.56;;;22.40;43.57
81230;BME280;70701;44.452;18.652;2023-08-08T11:23:21;99400.66;;;22.86;42.71
81230;BME280;70701;44.452;18.652;2023-08-08T11:25:47;99405.63;;;23.20;41.98
81230;BME280;70701;44.452;18.652;2023-08-08T11:28:13;99412.34;;;23.11;41.23
81230;BME280;70701;44.452;18.652;2023-08-08T11:30:43;99403.84;;;23.34;41.66
81230;BME280;70701;44.452;18.652;2023-08-08T11:33:13;99397.38;;;23.22;40.91
81230;BME280;70701;44.452;18.652;2023-08-08T11:35:43;99403.31;;;23.24;40.00
81230;BME280;70701;44.452;18.652;2023-08-08T11:38:11;99393.50;;;23.36;39.60
81230;BME280;70701;44.452;18.652;2023-08-08T11:40:37;99392.72;;;23.47;41.05
81230;BME280;70701;44.452;18.652;2023-08-08T11:43:02;99374.13;;;23.29;41.80
81230;BME280;70701;44.452;18.652;2023-08-08T11:45:28;99384.97;;;23.14;40.48
81230;BME280;70701;44.452;18.652;2023-08-08T11:47:55;99371.00;;;23.10;40.79
81230;BME280;70701;44.452;18.652;2023-08-08T11:50:22;99375.69;;;23.19;41.68
81230;BME280;70701;44.452;18.652;2023-08-08T11:52:51;99372.31;;;23.15;40.73
81230;BME280;70701;44.452;18.652;2023-08-08T11:55:16;99366.91;;;23.34;40.25
81230;BME280;70701;44.452;18.652;2023-08-08T11:57:48;99374.63;;;23.50;39.95
81230;BME280;70701;44.452;18.652;2023-08-08T12:00:14;99365.03;;;23.59;39.86
81230;BME280;70701;44.452;18.652;2023-08-08T12:02:43;99375.94;;;23.38;39.81
81230;BME280;70701;44.452;18.652;2023-08-08T12:05:11;99352.41;;;22.98;40.41
81230;BME280;70701;44.452;18.652;2023-08-08T12:07:38;99352.91;;;22.90;40.76
81230;BME280;70701;44.452;18.652;2023-08-08T12:10:19;99354.75;;;23.27;41.18
81230;BME280;70701;44.452;18.652;2023-08-08T12:12:46;99346.25;;;23.22;41.35
81230;BME280;70701;44.452;18.652;2023-08-08T12:15:13;99341.03;;;22.98;40.25
81230;BME280;70701;44.452;18.652;2023-08-08T12:17:39;99338.75;;;23.07;40.37
81230;BME280;70701;44.452;18.652;2023-08-08T12:20:09;99322.72;;;23.27;38.52
81230;BME280;70701;44.452;18.652;2023-08-08T12:22:35;99338.16;;;23.65;38.35
81230;BME280;70701;44.452;18.652;2023-08-08T12:25:01;99324.97;;;23.62;38.50
81230;BME280;70701;44.452;18.652;2023-08-08T12:27:29;99338.66;;;23.75;38.70
81230;BME280;70701;44.452;18.652;2023-08-08T12:29:55;99325.03;;;23.34;39.19
81230;BME280;70701;44.452;18.652;2023-08-08T12:32:21;99329.94;;;23.45;39.07
81230;BME280;70701;44.452;18.652;2023-08-08T12:34:50;99298.69;;;23.34;39.06
81230;BME280;70701;44.452;18.652;2023-08-08T12:37:16;99328.34;;;23.61;38.47
81230;BME280;70701;44.452;18.652;2023-08-08T12:39:42;99325.41;;;23.95;37.73
81230;BME280;70701;44.452;18.652;2023-08-08T12:42:07;99326.44;;;24.03;36.78
81230;BME280;70701;44.452;18.652;2023-08-08T12:44:33;99329.88;;;23.84;36.86
81230;BME280;70701;44.452;18.652;2023-08-08T12:46:59;99328.00;;;23.98;36.85